Terminal Aerodrome Forecast
Issued by NWS

Home | Current Version | Previous Version | Text Only | Print | Product List | Glossary On
Versions: 1 2 3 4 5 6 7 8 9 10 11 12 13 14 15 16 17
000
FTUS42 KTAE 241720
TAFABY
TAF
KABY 241720Z 2418/2518 25004KT P6SM -SHRA VCTS BKN030CB
     FM241900 27005KT P6SM BKN040
     FM250000 VRB04KT 6SM -TSRA BKN050CB
     FM250400 VRB03KT P6SM BKN100=

USA.gov is the U.S. government's official web portal to all federal, state and local government web resources and services.